createdAt,value
2019-04-11T00:02:16.409Z,32.27
2019-04-11T00:04:48.567Z,29.87
2019-04-11T00:07:20.447Z,27.13
2019-04-11T00:09:52.798Z,27.22
2019-04-11T00:12:24.300Z,23.60
2019-04-11T00:14:56.012Z,24.37
2019-04-11T00:17:28.068Z,32.45
2019-04-11T00:20:00.323Z,27.87
2019-04-11T00:22:31.871Z,26.27
2019-04-11T00:25:03.667Z,22.27
2019-04-11T00:27:37.206Z,26.03
2019-04-11T00:30:10.115Z,24.47
2019-04-11T00:32:41.719Z,28.97
2019-04-11T00:35:13.665Z,31.68
2019-04-11T00:37:45.456Z,33.35
2019-04-11T00:40:18.558Z,25.12
2019-04-11T00:42:50.535Z,26.23
2019-04-11T00:45:23.316Z,24.63
2019-04-11T00:47:55.313Z,28.05
2019-04-11T00:50:27.560Z,26.05
2019-04-11T00:52:59.712Z,27.33
2019-04-11T00:55:31.484Z,24.98
2019-04-11T00:58:03.485Z,26.00
2019-04-11T01:00:36.652Z,25.10
2019-04-11T01:03:08.016Z,24.92
2019-04-11T01:05:39.541Z,23.00
2019-04-11T01:08:11.485Z,29.15
2019-04-11T01:10:43.570Z,23.57
2019-04-11T01:13:15.632Z,27.95
2019-04-11T01:15:55.197Z,24.20
2019-04-11T01:18:27.707Z,23.85
2019-04-11T01:20:59.803Z,22.62
2019-04-11T01:23:31.245Z,25.40
2019-04-11T01:26:03.230Z,25.02
2019-04-11T01:28:36.520Z,24.47
2019-04-11T01:31:10.059Z,26.30
2019-04-11T01:33:42.210Z,23.12
2019-04-11T01:36:13.786Z,27.27
2019-04-11T01:38:48.940Z,25.00
2019-04-11T01:41:20.524Z,23.57
2019-04-11T01:43:56.466Z,27.02
2019-04-11T01:46:24.461Z,25.10
2019-04-11T01:49:12.036Z,24.27
2019-04-11T01:51:45.554Z,23.10
2019-04-11T01:54:17.074Z,28.10
2019-04-11T01:56:49.517Z,24.32
2019-04-11T01:59:23.627Z,26.68
2019-04-11T02:02:13.583Z,21.60
2019-04-11T02:05:02.766Z,20.62
2019-04-11T02:07:35.076Z,29.05
2019-04-11T02:10:07.196Z,26.02
2019-04-11T02:12:39.378Z,24.63
2019-04-11T02:15:12.348Z,23.83
2019-04-11T02:17:44.025Z,26.33
2019-04-11T02:20:16.686Z,21.77
2019-04-11T02:23:06.809Z,25.45
2019-04-11T02:26:01.502Z,26.57
2019-04-11T02:28:33.594Z,24.20
2019-04-11T02:31:07.732Z,26.70
2019-04-11T02:33:43.306Z,32.85
2019-04-11T02:36:16.475Z,22.60
2019-04-11T02:38:54.075Z,30.77
2019-04-11T02:41:21.653Z,25.97
2019-04-11T02:43:55.029Z,24.67
2019-04-11T02:46:37.093Z,23.52
2019-04-11T02:49:01.534Z,28.42
2019-04-11T02:51:36.878Z,28.87
2019-04-11T02:54:09.166Z,27.80
2019-04-11T02:56:43.052Z,24.75
2019-04-11T02:59:15.296Z,24.77
2019-04-11T03:01:48.568Z,25.70
2019-04-11T03:04:22.734Z,24.92
2019-04-11T03:06:55.255Z,27.67
2019-04-11T03:09:28.976Z,29.75
2019-04-11T03:12:00.860Z,27.77
2019-04-11T03:14:46.072Z,25.85
2019-04-11T03:17:12.813Z,28.60
2019-04-11T03:19:53.686Z,28.55
2019-04-11T03:22:13.959Z,25.12
2019-04-11T03:24:46.956Z,24.45
2019-04-11T03:27:20.001Z,25.68
2019-04-11T03:29:53.679Z,27.80
2019-04-11T03:33:18.113Z,27.10
2019-04-11T03:35:53.761Z,28.45
2019-04-11T03:37:54.021Z,27.95
2019-04-11T03:40:25.826Z,31.50
2019-04-11T03:42:52.362Z,32.40
2019-04-11T03:45:33.133Z,25.88
2019-04-11T03:48:03.720Z,26.07
2019-04-11T03:50:21.439Z,29.55
2019-04-11T03:52:51.761Z,28.17
2019-04-11T03:55:25.955Z,27.15
2019-04-11T03:57:59.195Z,28.90
2019-04-11T04:00:35.988Z,27.77
2019-04-11T04:03:06.236Z,27.40
2019-04-11T04:05:41.562Z,37.75
2019-04-11T04:08:13.589Z,28.02
2019-04-11T04:11:08.614Z,28.38
2019-04-11T04:13:45.522Z,28.38
2019-04-11T04:16:40.145Z,31.33
2019-04-11T04:19:16.326Z,28.55
2019-04-11T04:22:06.912Z,30.05
2019-04-11T04:24:55.467Z,29.95
2019-04-11T04:27:28.064Z,29.63
2019-04-11T04:30:08.607Z,33.23
2019-04-11T04:32:42.895Z,31.20
2019-04-11T04:35:21.530Z,69.77
2019-04-11T04:37:54.853Z,38.15
2019-04-11T04:40:54.127Z,29.75
2019-04-11T04:43:14.704Z,33.30
2019-04-11T04:46:08.849Z,33.10
2019-04-11T04:48:28.973Z,33.88
2019-04-11T04:51:07.305Z,38.15
2019-04-11T04:53:36.894Z,32.10
2019-04-11T04:56:15.738Z,31.07
2019-04-11T04:59:07.123Z,31.07
2019-04-11T05:01:45.525Z,40.00
2019-04-11T05:04:19.018Z,33.67
2019-04-11T05:06:55.042Z,31.05
2019-04-11T05:09:27.821Z,34.13
2019-04-11T05:11:59.376Z,32.75
2019-04-11T05:14:31.638Z,32.60
2019-04-11T05:17:03.420Z,36.40
2019-04-11T05:19:35.076Z,36.00
2019-04-11T05:22:06.629Z,33.25
2019-04-11T05:24:38.900Z,30.05
2019-04-11T05:27:10.424Z,33.63
2019-04-11T05:29:41.791Z,33.65
2019-04-11T05:32:13.579Z,35.25
2019-04-11T05:34:45.620Z,36.75
2019-04-11T05:37:18.621Z,36.48
2019-04-11T05:39:50.811Z,34.85
2019-04-11T05:42:25.538Z,37.40
2019-04-11T05:44:56.954Z,41.18
2019-04-11T05:47:29.725Z,97.80
2019-04-11T05:50:20.146Z,48.85
2019-04-11T05:52:51.150Z,46.53
2019-04-11T05:55:22.431Z,45.90
2019-04-11T05:57:54.388Z,41.77
2019-04-11T06:00:59.731Z,38.73
2019-04-11T06:03:32.348Z,44.35
2019-04-11T06:06:34.301Z,38.48
2019-04-11T06:09:10.307Z,40.95
2019-04-11T06:11:54.247Z,38.67
2019-04-11T06:14:47.185Z,39.53
2019-04-11T06:17:21.895Z,41.73
2019-04-11T06:20:12.528Z,48.30
2019-04-11T06:22:54.143Z,36.55
2019-04-11T06:25:35.850Z,45.75
2019-04-11T06:28:15.071Z,46.00
2019-04-11T06:31:04.874Z,40.40
2019-04-11T06:33:40.718Z,43.80
2019-04-11T06:36:33.911Z,46.53
2019-04-11T06:39:19.049Z,45.55
2019-04-11T06:42:06.037Z,39.27
2019-04-11T06:45:02.358Z,40.05
2019-04-11T06:47:50.010Z,45.75
2019-04-11T06:50:43.846Z,36.88
2019-04-11T06:53:19.122Z,34.67
2019-04-11T06:56:08.287Z,39.10
2019-04-11T06:58:43.674Z,37.40
2019-04-11T07:01:20.857Z,33.65
2019-04-11T07:03:55.642Z,33.23
2019-04-11T07:06:29.932Z,31.45
2019-04-11T07:09:20.384Z,30.43
2019-04-11T07:11:54.903Z,29.87
2019-04-11T07:14:40.572Z,28.52
2019-04-11T07:17:29.740Z,28.45
2019-04-11T07:20:27.154Z,25.62
2019-04-11T07:23:16.380Z,20.88
2019-04-11T07:25:54.539Z,22.60
2019-04-11T07:28:36.957Z,21.70
2019-04-11T07:31:25.570Z,22.05
2019-04-11T07:34:31.513Z,18.45
2019-04-11T07:37:19.114Z,17.77
2019-04-11T07:40:13.146Z,18.02
2019-04-11T07:43:18.473Z,19.48
2019-04-11T07:46:14.932Z,16.42
2019-04-11T07:48:46.937Z,17.87
2019-04-11T07:51:36.435Z,17.82
2019-04-11T07:54:20.135Z,17.50
2019-04-11T07:57:12.935Z,15.70
2019-04-11T08:00:19.374Z,19.17
2019-04-11T08:03:10.722Z,17.30
2019-04-11T08:06:00.922Z,18.30
2019-04-11T08:08:52.527Z,17.92
2019-04-11T08:11:31.724Z,19.95
2019-04-11T08:14:40.814Z,18.05
2019-04-11T08:17:31.211Z,17.48
2019-04-11T08:20:25.625Z,29.55
2019-04-11T08:23:03.530Z,23.77
2019-04-11T08:25:55.721Z,21.00
2019-04-11T08:28:28.847Z,20.70
2019-04-11T08:31:28.820Z,22.60
2019-04-11T08:34:04.894Z,30.95
2019-04-11T08:36:58.996Z,39.15
2019-04-11T08:39:43.524Z,22.25
2019-04-11T08:42:48.817Z,20.68
2019-04-11T08:45:20.102Z,20.90
2019-04-11T08:47:56.138Z,25.73
2019-04-11T08:50:30.304Z,21.60
2019-04-11T08:53:18.649Z,20.73
2019-04-11T08:55:57.090Z,19.23
2019-04-11T08:58:44.831Z,22.22
2019-04-11T09:01:20.064Z,23.10
2019-04-11T09:04:26.107Z,20.17
2019-04-11T09:06:57.819Z,21.03
2019-04-11T09:09:47.894Z,18.40
2019-04-11T09:12:18.589Z,16.60
2019-04-11T09:15:14.860Z,17.20
2019-04-11T09:18:05.706Z,25.47
2019-04-11T09:21:00.118Z,22.17
2019-04-11T09:23:31.263Z,24.60
2019-04-11T09:26:20.280Z,20.93
2019-04-11T09:28:53.591Z,18.30
2019-04-11T09:31:43.899Z,17.53
2019-04-11T09:34:33.683Z,20.37
2019-04-11T09:37:27.498Z,20.30
2019-04-11T09:40:24.072Z,18.83
2019-04-11T09:43:29.319Z,20.00
2019-04-11T09:46:18.587Z,16.50
2019-04-11T09:49:14.994Z,18.50
2019-04-11T09:52:14.727Z,19.53
2019-04-11T09:55:15.004Z,18.83
2019-04-11T09:57:50.451Z,16.43
2019-04-11T10:00:56.002Z,21.63
2019-04-11T10:03:30.350Z,17.60
2019-04-11T10:06:19.930Z,20.03
2019-04-11T10:08:55.471Z,18.57
2019-04-11T10:11:46.344Z,22.53
2019-04-11T10:14:19.657Z,14.20
2019-04-11T10:17:08.778Z,17.53
2019-04-11T10:20:02.726Z,14.37
2019-04-11T10:22:52.884Z,18.63
2019-04-11T10:25:30.030Z,17.43
2019-04-11T10:28:29.715Z,15.80
2019-04-11T10:31:34.756Z,15.90
2019-04-11T10:34:40.339Z,20.83
2019-04-11T10:37:15.777Z,14.83
2019-04-11T10:40:11.980Z,14.63
2019-04-11T10:42:43.058Z,15.27
2019-04-11T10:45:34.396Z,12.33
2019-04-11T10:48:07.667Z,12.30
2019-04-11T10:50:58.335Z,13.40
2019-04-11T10:53:29.794Z,12.37
2019-04-11T10:56:26.414Z,17.43
2019-04-11T10:59:02.314Z,12.67
2019-04-11T11:01:56.075Z,12.50
2019-04-11T11:04:47.015Z,12.70
2019-04-11T11:07:27.294Z,12.10
2019-04-11T11:10:23.766Z,13.13
2019-04-11T11:13:11.791Z,13.10
2019-04-11T11:15:47.550Z,14.67
2019-04-11T11:19:15.188Z,12.97
2019-04-11T11:21:30.006Z,12.67
2019-04-11T11:24:21.873Z,15.87
2019-04-11T11:26:56.710Z,12.77
2019-04-11T11:29:47.522Z,13.60
2019-04-11T11:32:31.759Z,12.43
2019-04-11T11:35:33.647Z,12.07
2019-04-11T11:38:19.895Z,12.40
2019-04-11T11:41:08.686Z,19.07
2019-04-11T11:43:41.266Z,14.03
2019-04-11T11:46:31.697Z,14.00
2019-04-11T11:49:42.034Z,13.43
2019-04-11T11:52:17.203Z,18.77
2019-04-11T11:54:51.789Z,21.30
2019-04-11T11:57:27.029Z,22.03
2019-04-11T12:00:04.947Z,13.70
2019-04-11T12:03:05.292Z,13.10
2019-04-11T12:05:45.605Z,16.20
2019-04-11T12:08:22.258Z,13.30
2019-04-11T12:10:58.033Z,17.13
2019-04-11T12:13:48.364Z,12.33
2019-04-11T12:16:38.138Z,15.13
2019-04-11T12:19:20.326Z,12.33
2019-04-11T12:21:53.623Z,13.03
2019-04-11T12:24:50.323Z,12.20
2019-04-11T12:27:35.130Z,12.00
2019-04-11T12:30:29.071Z,12.67
2019-04-11T12:33:11.330Z,12.80
2019-04-11T12:35:57.938Z,13.67
2019-04-11T12:38:37.981Z,12.07
2019-04-11T12:41:15.863Z,15.17
2019-04-11T12:44:03.128Z,14.20
2019-04-11T12:46:52.410Z,13.00
2019-04-11T12:49:35.509Z,17.27
2019-04-11T12:52:32.537Z,14.40
2019-04-11T12:55:03.647Z,16.10
2019-04-11T12:57:53.157Z,18.40
2019-04-11T13:00:42.849Z,13.93
2019-04-11T13:03:38.026Z,13.90
2019-04-11T13:06:17.448Z,17.50
2019-04-11T13:09:16.523Z,11.70
2019-04-11T13:11:48.977Z,12.83
2019-04-11T13:14:45.200Z,12.97
2019-04-11T13:17:21.033Z,11.63
2019-04-11T13:20:11.267Z,13.90
2019-04-11T13:22:42.470Z,11.20
2019-04-11T13:25:31.611Z,11.40
2019-04-11T13:28:04.133Z,11.77
2019-04-11T13:31:03.380Z,13.87
2019-04-11T13:33:35.353Z,12.30
2019-04-11T13:36:22.092Z,11.13
2019-04-11T13:38:53.578Z,14.33
2019-04-11T13:41:49.541Z,14.90
2019-04-11T13:44:23.990Z,12.00
2019-04-11T13:47:13.040Z,15.00
2019-04-11T13:50:04.207Z,17.50
2019-04-11T13:52:54.053Z,15.77
2019-04-11T13:55:27.288Z,12.03
2019-04-11T13:58:17.202Z,9.50
2019-04-11T14:01:07.572Z,9.23
2019-04-11T14:03:56.516Z,10.70
2019-04-11T14:06:31.682Z,11.13
2019-04-11T14:09:25.200Z,10.83
2019-04-11T14:12:04.734Z,10.70
2019-04-11T14:14:40.391Z,12.40
2019-04-11T14:17:33.763Z,14.13
2019-04-11T14:20:42.976Z,14.47
2019-04-11T14:23:33.234Z,12.47
2019-04-11T14:26:22.748Z,11.13
2019-04-11T14:29:11.503Z,16.03
2019-04-11T14:31:55.601Z,13.30
2019-04-11T14:34:43.958Z,21.53
2019-04-11T14:37:46.323Z,9.57
2019-04-11T14:40:36.009Z,10.43
2019-04-11T14:43:34.739Z,13.10
2019-04-11T14:46:25.255Z,12.37
2019-04-11T14:49:02.056Z,9.80
2019-04-11T14:51:50.958Z,9.60
2019-04-11T14:54:27.295Z,12.90
2019-04-11T14:57:22.831Z,12.57
2019-04-11T15:00:05.006Z,9.73
2019-04-11T15:03:04.378Z,12.07
2019-04-11T15:05:48.295Z,14.30
2019-04-11T15:08:39.149Z,10.10
2019-04-11T15:11:27.655Z,10.10
2019-04-11T15:14:08.272Z,12.00
2019-04-11T15:17:01.524Z,9.43
2019-04-11T15:19:33.202Z,10.00
2019-04-11T15:22:23.994Z,13.73
2019-04-11T15:24:58.326Z,12.83
2019-04-11T15:27:59.089Z,17.00
2019-04-11T15:30:32.005Z,14.17
2019-04-11T15:33:20.651Z,9.83
2019-04-11T15:36:22.360Z,15.43
2019-04-11T15:39:11.421Z,11.67
2019-04-11T15:41:43.509Z,9.70
2019-04-11T15:44:36.688Z,10.47
2019-04-11T15:47:10.462Z,10.63
2019-04-11T15:50:09.580Z,9.50
2019-04-11T15:52:45.540Z,16.50
2019-04-11T15:55:45.010Z,11.43
2019-04-11T15:58:16.888Z,9.70
2019-04-11T16:01:22.413Z,13.13
2019-04-11T16:03:58.353Z,18.23
2019-04-11T16:06:41.148Z,13.83
2019-04-11T16:09:17.377Z,10.13
2019-04-11T16:12:17.054Z,13.90
2019-04-11T16:14:48.578Z,13.30
2019-04-11T16:17:44.652Z,11.60
2019-04-11T16:20:23.698Z,11.37
2019-04-11T16:23:13.280Z,14.10
2019-04-11T16:25:55.635Z,10.93
2019-04-11T16:28:54.145Z,11.50
2019-04-11T16:31:30.252Z,12.73
2019-04-11T16:34:23.799Z,11.13
2019-04-11T16:37:00.529Z,12.77
2019-04-11T16:39:53.423Z,12.47
2019-04-11T16:42:48.142Z,11.90
2019-04-11T16:45:38.031Z,14.63
2019-04-11T16:48:09.892Z,19.07
2019-04-11T16:50:41.528Z,10.77
2019-04-11T16:53:13.535Z,12.87
2019-04-11T16:55:44.755Z,13.60
2019-04-11T16:58:19.479Z,14.47
2019-04-11T17:00:52.089Z,15.47
2019-04-11T17:03:24.803Z,15.70
2019-04-11T17:06:15.660Z,12.50
2019-04-11T17:08:56.153Z,14.20
2019-04-11T17:11:27.817Z,14.07
2019-04-11T17:14:03.779Z,22.00
2019-04-11T17:16:35.459Z,12.33
2019-04-11T17:19:07.434Z,15.80
2019-04-11T17:21:43.557Z,14.37
2019-04-11T17:24:16.759Z,19.27
2019-04-11T17:26:47.304Z,16.00
2019-04-11T17:29:20.252Z,16.47
2019-04-11T17:31:51.050Z,17.60
2019-04-11T17:34:22.800Z,12.33
2019-04-11T17:36:54.174Z,15.23
2019-04-11T17:39:25.804Z,19.07
2019-04-11T17:41:57.448Z,17.93
2019-04-11T17:44:28.786Z,16.07
2019-04-11T17:47:00.418Z,15.47
2019-04-11T17:49:31.757Z,16.60
2019-04-11T17:52:05.209Z,17.57
2019-04-11T17:54:36.334Z,17.70
2019-04-11T17:57:08.409Z,17.13
2019-04-11T17:59:40.141Z,16.83
2019-04-11T18:02:12.605Z,15.50
2019-04-11T18:04:48.038Z,20.63
2019-04-11T18:07:22.006Z,20.63
2019-04-11T18:09:56.148Z,17.30
2019-04-11T18:12:28.950Z,16.33
2019-04-11T18:15:03.033Z,16.40
2019-04-11T18:17:35.634Z,16.10
2019-04-11T18:20:09.759Z,16.40
2019-04-11T18:22:46.307Z,22.10
2019-04-11T18:25:20.874Z,16.50
2019-04-11T18:27:54.860Z,19.03
2019-04-11T18:30:29.058Z,17.73
2019-04-11T18:33:00.882Z,20.27
2019-04-11T18:35:34.009Z,22.00
2019-04-11T18:38:06.277Z,22.40
2019-04-11T18:40:40.285Z,19.67
2019-04-11T18:43:16.832Z,23.83
2019-04-11T18:45:50.828Z,20.50
2019-04-11T18:48:23.008Z,21.70
2019-04-11T18:54:03.207Z,26.93
2019-04-11T18:56:38.061Z,20.73
2019-04-11T18:59:14.908Z,22.90
2019-04-11T19:01:46.536Z,18.77
2019-04-11T19:04:19.011Z,18.70
2019-04-11T19:06:51.521Z,26.73
2019-04-11T19:09:24.342Z,22.90
2019-04-11T19:11:56.596Z,26.47
2019-04-11T19:14:31.377Z,19.07
2019-04-11T19:17:04.728Z,19.47
2019-04-11T19:19:37.415Z,20.60
2019-04-11T19:22:08.965Z,32.10
2019-04-11T19:24:42.452Z,22.50
2019-04-11T19:27:17.175Z,23.47
2019-04-11T19:29:49.024Z,23.43
2019-04-11T19:32:21.753Z,23.00
2019-04-11T19:34:55.673Z,28.20
2019-04-11T19:37:31.988Z,25.00
2019-04-11T19:40:05.043Z,23.27
2019-04-11T19:42:36.226Z,22.43
2019-04-11T19:45:08.960Z,20.50
2019-04-11T19:47:41.253Z,22.83
2019-04-11T19:50:12.444Z,23.97
2019-04-11T19:52:45.756Z,22.70
2019-04-11T19:55:26.971Z,22.03
2019-04-11T19:57:59.112Z,20.93
2019-04-11T20:00:31.682Z,23.50
2019-04-11T20:03:03.403Z,24.03
2019-04-11T20:05:34.862Z,24.27
2019-04-11T20:08:06.466Z,22.63
2019-04-11T20:10:38.911Z,23.03
2019-04-11T20:13:10.344Z,20.33
2019-04-11T20:15:42.494Z,20.27
2019-04-11T20:18:14.700Z,24.97
2019-04-11T20:20:46.557Z,21.27
2019-04-11T20:23:18.160Z,22.07
2019-04-11T20:25:50.138Z,21.27
2019-04-11T20:28:21.586Z,21.57
2019-04-11T20:30:52.573Z,24.70
2019-04-11T20:33:27.291Z,25.73
2019-04-11T20:35:57.918Z,22.30
2019-04-11T20:38:29.486Z,23.80
2019-04-11T20:41:02.782Z,18.10
2019-04-11T20:43:34.594Z,21.10
2019-04-11T20:46:06.458Z,16.00
2019-04-11T20:48:38.137Z,20.17
2019-04-11T20:51:09.760Z,18.87
2019-04-11T20:53:41.349Z,17.00
2019-04-11T20:56:23.670Z,21.93
2019-04-11T20:58:45.342Z,19.40
2019-04-11T21:01:16.996Z,18.73
2019-04-11T21:03:47.791Z,18.33
2019-04-11T21:06:19.588Z,23.93
2019-04-11T21:08:50.964Z,18.27
2019-04-11T21:11:21.949Z,18.30
2019-04-11T21:13:53.847Z,21.70
2019-04-11T21:16:24.823Z,19.50
2019-04-11T21:18:56.771Z,19.98
2019-04-11T21:21:28.679Z,23.22
2019-04-11T21:24:00.381Z,21.87
2019-04-11T21:26:32.336Z,21.80
2019-04-11T21:29:03.383Z,19.30
2019-04-11T21:31:34.708Z,19.82
2019-04-11T21:34:05.754Z,19.37
2019-04-11T21:36:37.871Z,20.97
2019-04-11T21:39:10.040Z,25.13
2019-04-11T21:41:42.013Z,18.27
2019-04-11T21:44:13.039Z,20.05
2019-04-11T21:46:44.054Z,18.00
2019-04-11T21:49:16.210Z,23.80
2019-04-11T21:51:47.781Z,18.52
2019-04-11T21:54:19.657Z,18.55
2019-04-11T21:56:50.992Z,19.40
2019-04-11T21:59:23.046Z,23.22
2019-04-11T22:01:54.784Z,18.35
2019-04-11T22:04:27.183Z,16.87
2019-04-11T22:07:01.004Z,18.37
2019-04-11T22:09:35.512Z,19.75
2019-04-11T22:12:08.195Z,21.35
2019-04-11T22:14:41.949Z,17.77
2019-04-11T22:17:15.850Z,21.70
2019-04-11T22:19:47.874Z,16.10
2019-04-11T22:22:19.402Z,23.77
2019-04-11T22:24:51.347Z,33.63
2019-04-11T22:27:23.500Z,26.80
2019-04-11T22:29:55.849Z,20.48
2019-04-11T22:32:27.482Z,34.53
2019-04-11T22:34:59.132Z,26.82
2019-04-11T22:37:31.105Z,25.97
2019-04-11T22:40:02.850Z,25.12
2019-04-11T22:42:34.379Z,21.87
2019-04-11T22:45:08.502Z,21.25
2019-04-11T22:47:39.496Z,18.87
2019-04-11T22:50:10.878Z,23.55
2019-04-11T22:52:42.192Z,28.23
2019-04-11T22:55:14.650Z,19.27
2019-04-11T22:57:46.238Z,23.95
2019-04-11T23:00:18.520Z,25.12
2019-04-11T23:02:57.216Z,23.10
2019-04-11T23:05:28.287Z,20.57
2019-04-11T23:08:00.005Z,20.12
2019-04-11T23:10:31.347Z,20.55
2019-04-11T23:13:02.669Z,21.75
2019-04-11T23:15:33.990Z,21.55
2019-04-11T23:18:05.571Z,22.75
2019-04-11T23:20:36.878Z,21.05
2019-04-11T23:23:08.453Z,17.77
2019-04-11T23:25:40.005Z,19.17
2019-04-11T23:28:15.549Z,19.55
2019-04-11T23:30:49.534Z,22.45
2019-04-11T23:33:18.996Z,21.93
2019-04-11T23:35:51.795Z,18.35
2019-04-11T23:38:23.894Z,19.77
2019-04-11T23:40:55.854Z,20.62
2019-04-11T23:43:27.116Z,20.77
2019-04-11T23:45:58.033Z,16.90
2019-04-11T23:48:29.313Z,19.82
2019-04-11T23:51:00.545Z,19.32
2019-04-11T23:53:32.752Z,22.22
2019-04-11T23:56:04.468Z,19.02
2019-04-11T23:58:36.431Z,21.57
